Time;durP1;ratioP1;P1;durP2;ratioP2;P2;SDS_P1;SDS_P2;PMS_P1;PMS_P2;Temp;Humidity;BMP_temperature;BMP_pressure;BME280_temperature;BME280_humidity;BME280_pressure;Samples;Min_cycle;Max_cycle;Signal;HPM_P1;HPM_P2
2024/03/14 00:02:34;;;;;;;41.75;26.40;;;;;;;;;;6269769;28;24465;-78
2024/03/14 00:05:35;;;;;;;41.00;24.65;;;;;;;;;;6285751;28;24419;-79
2024/03/14 00:08:37;;;;;;;43.10;26.42;;;;;;;;;;6286025;28;25052;-81
2024/03/14 00:11:38;;;;;;;159.43;89.63;;;;;;;;;;6290528;28;24511;-80
2024/03/14 00:14:44;;;;;;;101.82;57.05;;;;;;;;;;6288067;28;24433;-79
2024/03/14 00:17:46;;;;;;;77.17;43.90;;;;;;;;;;6288074;28;24892;-79
2024/03/14 00:20:47;;;;;;;69.60;40.65;;;;;;;;;;6288005;28;24415;-80
2024/03/14 00:23:49;;;;;;;52.03;32.28;;;;;;;;;;6284159;28;24579;-77
2024/03/14 00:26:50;;;;;;;59.72;35.45;;;;;;;;;;6287567;28;24922;-80
2024/03/14 00:29:55;;;;;;;63.22;37.22;;;;;;;;;;6287518;28;24418;-80
2024/03/14 00:32:59;;;;;;;55.38;32.95;;;;;;;;;;6288745;28;24986;-79
2024/03/14 00:36:01;;;;;;;63.50;37.28;;;;;;;;;;6285312;28;24565;-80
2024/03/14 00:39:07;;;;;;;45.28;27.45;;;;;;;;;;6280528;28;24460;-79
2024/03/14 00:42:08;;;;;;;42.50;26.67;;;;;;;;;;6276382;28;24497;-80
2024/03/14 00:45:10;;;;;;;40.75;26.13;;;;;;;;;;6282038;28;24460;-80
2024/03/14 00:48:11;;;;;;;41.13;26.73;;;;;;;;;;6286824;28;25037;-82
2024/03/14 00:51:13;;;;;;;41.70;27.00;;;;;;;;;;6283498;28;24541;-80
2024/03/14 00:54:14;;;;;;;44.30;27.03;;;;;;;;;;6285195;28;24975;-80
2024/03/14 00:57:16;;;;;;;41.40;26.35;;;;;;;;;;6285634;28;24579;-80
2024/03/14 01:00:18;;;;;;;40.60;27.02;;;;;;;;;;6285173;28;24423;-79
2024/03/14 01:03:19;;;;;;;41.28;26.95;;;;;;;;;;6278972;28;24421;-80
2024/03/14 01:06:21;;;;;;;40.28;27.08;;;;;;;;;;6282092;28;24423;-80
2024/03/14 01:09:24;;;;;;;42.38;27.13;;;;;;;;;;6284462;28;24508;-80
2024/03/14 01:12:26;;;;;;;44.30;27.08;;;;;;;;;;6287246;28;24425;-80
2024/03/14 01:15:28;;;;;;;47.60;27.23;;;;;;;;;;6285121;28;24438;-79
2024/03/14 01:18:30;;;;;;;41.78;25.95;;;;;;;;;;6287968;28;24468;-80
2024/03/14 01:21:31;;;;;;;44.85;27.63;;;;;;;;;;6286057;28;24457;-80
2024/03/14 01:24:33;;;;;;;45.97;28.02;;;;;;;;;;6282432;28;25311;-81
2024/03/14 01:27:34;;;;;;;39.58;26.25;;;;;;;;;;6282942;28;24541;-80
2024/03/14 01:30:35;;;;;;;43.17;27.23;;;;;;;;;;6284593;28;25298;-81
2024/03/14 01:33:37;;;;;;;42.28;26.67;;;;;;;;;;6283793;28;24567;-79
2024/03/14 01:36:39;;;;;;;40.65;26.83;;;;;;;;;;6285177;28;24422;-80
2024/03/14 01:39:40;;;;;;;47.85;26.77;;;;;;;;;;6285198;28;24425;-79
2024/03/14 01:42:43;;;;;;;42.60;27.08;;;;;;;;;;6283560;28;24784;-81
2024/03/14 01:45:46;;;;;;;39.97;26.30;;;;;;;;;;6282210;28;24511;-80
2024/03/14 01:48:48;;;;;;;43.35;26.52;;;;;;;;;;6281948;28;24505;-80
2024/03/14 01:51:49;;;;;;;42.42;27.42;;;;;;;;;;6283432;28;24465;-79
2024/03/14 01:54:51;;;;;;;44.25;26.77;;;;;;;;;;6285567;28;24761;-80
2024/03/14 01:57:52;;;;;;;41.03;26.52;;;;;;;;;;6282158;28;24411;-78
2024/03/14 02:00:53;;;;;;;41.00;26.30;;;;;;;;;;6280908;28;24567;-80
2024/03/14 02:03:55;;;;;;;42.33;26.83;;;;;;;;;;6281970;28;24512;-81
2024/03/14 02:06:57;;;;;;;42.55;26.95;;;;;;;;;;6284224;28;24433;-81
2024/03/14 02:09:59;;;;;;;42.90;27.38;;;;;;;;;;6281078;28;26609;-79
2024/03/14 02:13:00;;;;;;;42.97;27.17;;;;;;;;;;6281941;28;24444;-80
2024/03/14 02:16:02;;;;;;;43.28;27.27;;;;;;;;;;6284493;28;24522;-81
2024/03/14 02:19:03;;;;;;;43.92;27.27;;;;;;;;;;6281587;28;24438;-79
2024/03/14 02:22:05;;;;;;;39.58;27.05;;;;;;;;;;6285163;28;24422;-79
2024/03/14 02:25:06;;;;;;;42.13;27.13;;;;;;;;;;6280861;28;24564;-79
2024/03/14 02:28:08;;;;;;;41.45;26.75;;;;;;;;;;6283270;28;24441;-79
2024/03/14 02:31:09;;;;;;;46.67;27.77;;;;;;;;;;6280444;28;24539;-80
2024/03/14 02:34:11;;;;;;;40.55;26.60;;;;;;;;;;6283929;28;24426;-78
2024/03/14 02:37:12;;;;;;;41.10;27.02;;;;;;;;;;6279768;28;24498;-81
2024/03/14 02:40:14;;;;;;;42.67;26.98;;;;;;;;;;6279827;28;24689;-80
2024/03/14 02:43:16;;;;;;;41.50;26.98;;;;;;;;;;6280410;28;24432;-80
2024/03/14 02:46:17;;;;;;;47.35;27.83;;;;;;;;;;6282804;28;24509;-79
2024/03/14 02:49:20;;;;;;;43.00;27.65;;;;;;;;;;6281535;28;24488;-79
2024/03/14 02:52:22;;;;;;;44.10;27.47;;;;;;;;;;6281543;28;24414;-79
2024/03/14 02:55:23;;;;;;;40.38;27.17;;;;;;;;;;6282950;28;24449;-78
2024/03/14 02:58:25;;;;;;;42.33;26.55;;;;;;;;;;6281439;28;24521;-80
2024/03/14 03:01:26;;;;;;;41.97;27.42;;;;;;;;;;6281429;28;25230;-79
2024/03/14 03:04:30;;;;;;;45.10;27.52;;;;;;;;;;6279147;28;24422;-81
2024/03/14 03:07:33;;;;;;;40.72;26.75;;;;;;;;;;6280712;28;24426;-80
2024/03/14 03:10:35;;;;;;;42.58;26.65;;;;;;;;;;6283921;28;24981;-79
2024/03/14 03:13:36;;;;;;;45.40;26.55;;;;;;;;;;6286530;28;24856;-78
2024/03/14 03:16:38;;;;;;;47.17;27.73;;;;;;;;;;6283826;28;24645;-80
2024/03/14 03:19:40;;;;;;;42.90;27.27;;;;;;;;;;6283083;28;24549;-81
2024/03/14 03:26:00;;;;;;;43.10;27.08;;;;;;;;;;6284161;28;24411;-81
2024/03/14 03:29:01;;;;;;;43.03;27.30;;;;;;;;;;6280214;28;24417;-81
2024/03/14 03:32:02;;;;;;;44.08;27.17;;;;;;;;;;6281649;28;24570;-80
2024/03/14 03:35:03;;;;;;;41.65;27.02;;;;;;;;;;6284222;28;24478;-80
2024/03/14 03:38:06;;;;;;;41.88;27.00;;;;;;;;;;6280572;28;24414;-80
2024/03/14 03:41:09;;;;;;;44.93;26.53;;;;;;;;;;6282544;28;24540;-81
2024/03/14 03:44:11;;;;;;;43.15;26.10;;;;;;;;;;6280323;28;24430;-80
2024/03/14 03:47:12;;;;;;;43.58;27.95;;;;;;;;;;6280740;28;24874;-80
2024/03/14 03:50:13;;;;;;;39.97;27.20;;;;;;;;;;6279248;28;24572;-79
2024/03/14 03:53:14;;;;;;;41.47;27.30;;;;;;;;;;6282245;28;24993;-80
2024/03/14 03:56:15;;;;;;;45.37;28.10;;;;;;;;;;6279029;28;24418;-80
2024/03/14 03:59:17;;;;;;;42.92;27.83;;;;;;;;;;6282932;28;24427;-80
2024/03/14 04:02:18;;;;;;;44.10;27.20;;;;;;;;;;6284511;28;24454;-80
2024/03/14 04:05:20;;;;;;;43.45;27.98;;;;;;;;;;6279323;28;24430;-80
2024/03/14 04:08:21;;;;;;;40.83;27.63;;;;;;;;;;6275659;28;24993;-80
2024/03/14 04:11:23;;;;;;;42.27;28.37;;;;;;;;;;6280128;28;25047;-79
2024/03/14 04:14:24;;;;;;;45.00;27.75;;;;;;;;;;6281891;28;24514;-79
2024/03/14 04:17:26;;;;;;;46.58;28.38;;;;;;;;;;6278635;28;24486;-79
2024/03/14 04:20:27;;;;;;;45.15;28.50;;;;;;;;;;6284426;28;24976;-80
2024/03/14 04:23:29;;;;;;;45.17;27.60;;;;;;;;;;6283575;28;24411;-79
2024/03/14 04:26:30;;;;;;;43.28;27.98;;;;;;;;;;6289349;28;24441;-79
2024/03/14 04:29:32;;;;;;;44.78;27.90;;;;;;;;;;6284796;28;24525;-81
2024/03/14 04:32:33;;;;;;;40.27;27.30;;;;;;;;;;6281390;28;25285;-80
2024/03/14 04:35:35;;;;;;;41.25;27.08;;;;;;;;;;6287829;28;24410;-76
2024/03/14 04:38:37;;;;;;;41.97;27.33;;;;;;;;;;6285833;28;24418;-76
2024/03/14 04:41:39;;;;;;;41.75;27.05;;;;;;;;;;6286070;28;24502;-79
2024/03/14 04:44:40;;;;;;;43.70;27.73;;;;;;;;;;6290513;28;25038;-79
2024/03/14 04:47:42;;;;;;;41.50;27.07;;;;;;;;;;6287743;28;25054;-79
2024/03/14 04:50:46;;;;;;;46.13;28.02;;;;;;;;;;6284256;28;24447;-79
2024/03/14 04:53:47;;;;;;;42.53;27.52;;;;;;;;;;6285765;28;24422;-79
2024/03/14 04:56:49;;;;;;;41.10;27.88;;;;;;;;;;6285574;28;24586;-78
2024/03/14 04:59:51;;;;;;;41.70;27.15;;;;;;;;;;6287281;28;24464;-78
2024/03/14 05:02:55;;;;;;;40.78;27.27;;;;;;;;;;6283014;28;24473;-80
2024/03/14 05:05:57;;;;;;;43.63;27.17;;;;;;;;;;6281849;28;24414;-80
2024/03/14 05:09:00;;;;;;;44.10;26.57;;;;;;;;;;6284695;28;25025;-78
2024/03/14 05:12:01;;;;;;;42.45;27.35;;;;;;;;;;6285907;28;24453;-77
2024/03/14 05:15:04;;;;;;;44.90;27.05;;;;;;;;;;6283985;28;24509;-79
2024/03/14 05:18:06;;;;;;;42.63;26.33;;;;;;;;;;6284240;28;24411;-79
2024/03/14 05:21:10;;;;;;;45.13;26.60;;;;;;;;;;6285129;28;24452;-79
2024/03/14 05:24:11;;;;;;;43.38;26.17;;;;;;;;;;6284336;28;24419;-79
2024/03/14 05:27:13;;;;;;;41.40;25.98;;;;;;;;;;6287059;28;24429;-78
2024/03/14 05:30:17;;;;;;;40.33;26.65;;;;;;;;;;6284484;28;24423;-79
2024/03/14 05:33:19;;;;;;;41.83;27.00;;;;;;;;;;6282769;28;24479;-79
2024/03/14 05:36:20;;;;;;;44.25;26.65;;;;;;;;;;6285043;28;24440;-79
2024/03/14 05:39:24;;;;;;;40.40;25.88;;;;;;;;;;6284164;28;24422;-79
2024/03/14 05:42:25;;;;;;;42.15;25.73;;;;;;;;;;6285863;28;25005;-80
2024/03/14 05:45:27;;;;;;;41.15;26.27;;;;;;;;;;6280756;28;24417;-77
2024/03/14 05:48:28;;;;;;;44.08;25.70;;;;;;;;;;6285625;28;24419;-77
2024/03/14 05:51:30;;;;;;;37.67;24.98;;;;;;;;;;6284506;28;24421;-77
2024/03/14 05:54:31;;;;;;;41.10;25.83;;;;;;;;;;6282886;28;24776;-77
2024/03/14 05:57:33;;;;;;;42.93;26.10;;;;;;;;;;6282999;28;25038;-77
2024/03/14 06:00:35;;;;;;;40.35;25.73;;;;;;;;;;6285567;28;25084;-78
2024/03/14 06:03:36;;;;;;;42.80;25.80;;;;;;;;;;6281361;28;24804;-78
2024/03/14 06:06:38;;;;;;;40.23;25.13;;;;;;;;;;6281960;28;24422;-78
2024/03/14 06:09:41;;;;;;;39.90;25.77;;;;;;;;;;6283466;28;24478;-79
2024/03/14 06:12:45;;;;;;;40.38;25.70;;;;;;;;;;6279753;28;24423;-79
2024/03/14 06:15:48;;;;;;;42.47;26.10;;;;;;;;;;6282432;28;24494;-81
2024/03/14 06:18:50;;;;;;;37.55;24.70;;;;;;;;;;6285187;28;24642;-79
2024/03/14 06:21:51;;;;;;;38.22;24.30;;;;;;;;;;6281598;28;24426;-79
2024/03/14 06:24:53;;;;;;;42.67;25.95;;;;;;;;;;6283100;28;24426;-78
2024/03/14 06:27:54;;;;;;;38.53;25.15;;;;;;;;;;6280819;28;24439;-81
2024/03/14 06:30:56;;;;;;;41.30;26.25;;;;;;;;;;6283129;28;24430;-81
2024/03/14 06:33:57;;;;;;;37.40;25.23;;;;;;;;;;6281629;28;24554;-79
2024/03/14 06:36:59;;;;;;;39.05;24.45;;;;;;;;;;6282906;28;24819;-80
2024/03/14 06:40:00;;;;;;;36.60;24.97;;;;;;;;;;6280617;28;24474;-78
2024/03/14 06:43:06;;;;;;;36.60;25.17;;;;;;;;;;6257102;28;24506;-81
2024/03/14 06:46:08;;;;;;;38.53;25.33;;;;;;;;;;6283103;28;24434;-80
2024/03/14 06:49:12;;;;;;;39.03;25.60;;;;;;;;;;6283787;28;24493;-81
2024/03/14 06:52:14;;;;;;;40.10;25.38;;;;;;;;;;6280508;28;24906;-81
2024/03/14 06:55:15;;;;;;;39.35;25.98;;;;;;;;;;6288985;28;24449;-80
2024/03/14 06:58:17;;;;;;;39.05;25.27;;;;;;;;;;6280162;28;24481;-80
2024/03/14 07:01:18;;;;;;;40.47;26.25;;;;;;;;;;6280067;28;24430;-79
2024/03/14 07:04:20;;;;;;;41.05;25.90;;;;;;;;;;6283162;28;24906;-78
2024/03/14 07:07:22;;;;;;;42.05;26.08;;;;;;;;;;6280341;28;24414;-78
2024/03/14 07:10:23;;;;;;;41.67;25.67;;;;;;;;;;6284019;28;24413;-80
2024/03/14 07:13:25;;;;;;;45.92;26.40;;;;;;;;;;6283032;28;24464;-80
2024/03/14 07:16:27;;;;;;;41.47;26.35;;;;;;;;;;6280008;28;24492;-80
2024/03/14 07:19:28;;;;;;;41.25;25.48;;;;;;;;;;6281352;28;24513;-82
2024/03/14 07:22:29;;;;;;;41.07;26.33;;;;;;;;;;6280464;28;24931;-80
2024/03/14 07:25:31;;;;;;;37.72;25.98;;;;;;;;;;6281324;28;24418;-80
2024/03/14 07:28:32;;;;;;;42.65;26.13;;;;;;;;;;6283242;28;24454;-79
2024/03/14 07:31:34;;;;;;;40.20;25.88;;;;;;;;;;6283366;28;24468;-81
2024/03/14 07:34:35;;;;;;;44.00;27.33;;;;;;;;;;6279299;28;24643;-81
2024/03/14 07:37:37;;;;;;;43.08;26.60;;;;;;;;;;6277550;28;24423;-80
2024/03/14 07:40:39;;;;;;;42.05;27.63;;;;;;;;;;6282203;28;24512;-80
2024/03/14 07:43:40;;;;;;;42.45;27.27;;;;;;;;;;6280810;28;24831;-81
2024/03/14 07:46:43;;;;;;;47.17;27.98;;;;;;;;;;6281094;28;24479;-79
2024/03/14 07:49:45;;;;;;;45.40;28.92;;;;;;;;;;6279896;28;24689;-80
2024/03/14 07:52:46;;;;;;;44.00;28.02;;;;;;;;;;6280325;28;24780;-78
2024/03/14 07:55:49;;;;;;;46.55;27.50;;;;;;;;;;6281993;28;24497;-78
2024/03/14 07:58:51;;;;;;;44.55;28.85;;;;;;;;;;6286138;28;24421;-79
2024/03/14 08:01:52;;;;;;;45.57;29.13;;;;;;;;;;6286434;28;24509;-78
2024/03/14 08:04:54;;;;;;;45.92;30.20;;;;;;;;;;6288802;28;25043;-79
2024/03/14 08:07:55;;;;;;;50.38;31.63;;;;;;;;;;6286080;28;24526;-79
2024/03/14 08:10:57;;;;;;;48.75;30.15;;;;;;;;;;6283748;28;24407;-81
2024/03/14 08:14:06;;;;;;;47.97;30.47;;;;;;;;;;6282645;28;24620;-79
2024/03/14 08:17:13;;;;;;;49.38;29.83;;;;;;;;;;6286970;28;24855;-79
2024/03/14 08:20:16;;;;;;;47.65;30.05;;;;;;;;;;6288320;28;24419;-81
2024/03/14 08:23:17;;;;;;;44.23;29.87;;;;;;;;;;6281943;28;24422;-79
2024/03/14 08:26:19;;;;;;;44.53;28.95;;;;;;;;;;6285003;28;24418;-80
2024/03/14 08:29:25;;;;;;;45.17;29.42;;;;;;;;;;6285812;28;24495;-79
2024/03/14 08:32:27;;;;;;;43.85;29.23;;;;;;;;;;6283514;28;24422;-80
2024/03/14 08:35:28;;;;;;;45.80;29.10;;;;;;;;;;6285806;28;24513;-81
2024/03/14 08:38:30;;;;;;;44.15;28.85;;;;;;;;;;6286623;28;25033;-79
2024/03/14 08:41:32;;;;;;;43.33;28.40;;;;;;;;;;6288398;28;24510;-79
2024/03/14 08:44:34;;;;;;;39.55;28.13;;;;;;;;;;6283610;28;24421;-79
2024/03/14 08:47:35;;;;;;;43.05;27.70;;;;;;;;;;6284801;28;24495;-80
2024/03/14 08:50:40;;;;;;;43.45;28.08;;;;;;;;;;6288446;28;24464;-80
2024/03/14 08:58:03;;;;;;;42.40;28.17;;;;;;;;;;6335677;27;24415;-80
2024/03/14 09:01:05;;;;;;;43.20;27.80;;;;;;;;;;6186088;28;225062;-80
2024/03/14 09:04:06;;;;;;;42.00;27.85;;;;;;;;;;6247481;28;218470;-80
2024/03/14 09:07:08;;;;;;;42.60;27.90;;;;;;;;;;6294447;28;24509;-82
2024/03/14 09:10:16;;;;;;;40.70;27.23;;;;;;;;;;6294022;28;24806;-82
2024/03/14 09:13:17;;;;;;;36.33;25.08;;;;;;;;;;6294728;28;24910;-78
2024/03/14 09:16:19;;;;;;;38.80;26.33;;;;;;;;;;6292259;28;24800;-81
2024/03/14 09:19:20;;;;;;;38.80;26.42;;;;;;;;;;6297025;28;24426;-80
2024/03/14 09:22:22;;;;;;;38.67;26.90;;;;;;;;;;6293133;28;24497;-80
2024/03/14 09:25:24;;;;;;;36.35;26.33;;;;;;;;;;6295836;28;24413;-80
2024/03/14 09:28:26;;;;;;;39.78;26.55;;;;;;;;;;6297361;28;24559;-79
2024/03/14 09:31:28;;;;;;;37.85;26.38;;;;;;;;;;6293923;28;24586;-79
2024/03/14 09:34:29;;;;;;;39.33;26.33;;;;;;;;;;6294672;28;24406;-81
2024/03/14 09:37:31;;;;;;;37.78;26.55;;;;;;;;;;6291666;28;24415;-79
2024/03/14 09:40:32;;;;;;;39.27;27.67;;;;;;;;;;6294125;28;24489;-81
2024/03/14 09:43:34;;;;;;;39.47;27.35;;;;;;;;;;6294397;28;24477;-81
2024/03/14 09:46:35;;;;;;;36.13;26.67;;;;;;;;;;6291416;28;24556;-78
2024/03/14 09:49:37;;;;;;;40.47;28.60;;;;;;;;;;6295149;28;24507;-78
2024/03/14 09:52:38;;;;;;;41.88;29.42;;;;;;;;;;6291813;28;24446;-79
2024/03/14 09:55:39;;;;;;;45.03;29.45;;;;;;;;;;6292107;28;24508;-81
2024/03/14 09:58:41;;;;;;;43.13;28.63;;;;;;;;;;6292023;28;24456;-80
2024/03/14 10:01:44;;;;;;;41.90;28.80;;;;;;;;;;6290651;28;24800;-81
2024/03/14 10:04:46;;;;;;;41.97;28.87;;;;;;;;;;6290676;28;24422;-80
2024/03/14 10:07:47;;;;;;;40.03;27.98;;;;;;;;;;6286585;28;24415;-80
2024/03/14 10:10:48;;;;;;;37.58;26.63;;;;;;;;;;6273631;28;24463;-80
2024/03/14 10:13:50;;;;;;;34.67;25.58;;;;;;;;;;6276244;28;24974;-80
2024/03/14 10:16:51;;;;;;;34.35;24.63;;;;;;;;;;6277011;28;24548;-79
2024/03/14 10:19:53;;;;;;;32.30;22.75;;;;;;;;;;6281352;28;24573;-81
2024/03/14 10:22:54;;;;;;;28.67;20.95;;;;;;;;;;6272804;28;25065;-81
2024/03/14 10:25:56;;;;;;;30.97;20.67;;;;;;;;;;6273363;28;24492;-80
2024/03/14 10:29:00;;;;;;;27.25;18.95;;;;;;;;;;6275361;28;24422;-79
2024/03/14 10:32:01;;;;;;;26.27;17.60;;;;;;;;;;6276197;28;24489;-80
2024/03/14 10:35:03;;;;;;;27.52;18.63;;;;;;;;;;6276548;28;24550;-79
2024/03/14 10:38:07;;;;;;;26.23;17.10;;;;;;;;;;6272839;28;25086;-79
2024/03/14 10:41:09;;;;;;;21.23;15.60;;;;;;;;;;6274498;28;24462;-79
2024/03/14 10:44:10;;;;;;;21.77;14.35;;;;;;;;;;6274510;28;24534;-79
2024/03/14 10:47:12;;;;;;;20.08;12.80;;;;;;;;;;6275631;28;24438;-79
2024/03/14 10:50:16;;;;;;;22.30;14.23;;;;;;;;;;6275725;28;24419;-80
2024/03/14 10:53:19;;;;;;;19.38;13.27;;;;;;;;;;6275975;28;24423;-81
2024/03/14 10:56:22;;;;;;;20.08;13.50;;;;;;;;;;6275347;28;24450;-79
2024/03/14 10:59:24;;;;;;;22.75;14.40;;;;;;;;;;6274412;28;24419;-82
2024/03/14 11:02:26;;;;;;;20.23;13.75;;;;;;;;;;6273773;28;24415;-81
2024/03/14 11:05:27;;;;;;;21.83;13.85;;;;;;;;;;6272409;28;24542;-79
2024/03/14 11:08:29;;;;;;;22.30;13.82;;;;;;;;;;6283083;28;24617;-80
2024/03/14 11:11:30;;;;;;;20.25;14.43;;;;;;;;;;6273702;28;24437;-80
2024/03/14 11:14:33;;;;;;;19.13;14.03;;;;;;;;;;6273442;28;24789;-79
2024/03/14 11:17:34;;;;;;;20.05;14.35;;;;;;;;;;6275112;28;24792;-79
2024/03/14 11:20:36;;;;;;;21.10;14.52;;;;;;;;;;6274493;28;24419;-79
2024/03/14 11:23:37;;;;;;;22.93;15.37;;;;;;;;;;6275413;28;25394;-79
2024/03/14 11:26:39;;;;;;;20.50;13.52;;;;;;;;;;6275198;28;25243;-79
2024/03/14 11:29:41;;;;;;;22.77;14.52;;;;;;;;;;6275630;28;24979;-80
2024/03/14 11:32:54;;;;;;;20.25;13.65;;;;;;;;;;6272391;28;25245;-78
2024/03/14 11:35:56;;;;;;;17.97;12.50;;;;;;;;;;6273379;28;24514;-79
2024/03/14 11:39:02;;;;;;;18.70;12.73;;;;;;;;;;6273905;28;24784;-80
2024/03/14 11:42:10;;;;;;;19.33;13.25;;;;;;;;;;6272560;28;24561;-80
2024/03/14 11:45:16;;;;;;;15.75;10.93;;;;;;;;;;6272887;28;25105;-79
2024/03/14 11:48:19;;;;;;;17.90;12.27;;;;;;;;;;6273421;28;25006;-80
2024/03/14 11:51:20;;;;;;;18.92;13.00;;;;;;;;;;6272796;28;24882;-80
2024/03/14 11:54:22;;;;;;;17.85;11.15;;;;;;;;;;6273032;28;24784;-79
2024/03/14 11:57:25;;;;;;;15.53;11.20;;;;;;;;;;6273934;28;24569;-80
2024/03/14 12:00:26;;;;;;;16.55;10.82;;;;;;;;;;6274857;28;24781;-80
2024/03/14 12:03:28;;;;;;;16.75;10.50;;;;;;;;;;6272742;28;24785;-80
2024/03/14 12:06:31;;;;;;;14.70;10.32;;;;;;;;;;6273450;28;24510;-78
2024/03/14 12:09:33;;;;;;;16.73;11.32;;;;;;;;;;6273089;28;24419;-81
2024/03/14 12:12:34;;;;;;;14.70;10.45;;;;;;;;;;6270185;28;24640;-79
2024/03/14 12:15:37;;;;;;;17.45;11.80;;;;;;;;;;6274000;28;24792;-80
2024/03/14 12:18:39;;;;;;;17.30;11.68;;;;;;;;;;6275562;28;25211;-80
2024/03/14 12:21:41;;;;;;;13.32;9.57;;;;;;;;;;6273714;28;24516;-79
2024/03/14 12:24:43;;;;;;;14.93;10.75;;;;;;;;;;6275500;28;25120;-81
2024/03/14 12:27:45;;;;;;;15.40;10.52;;;;;;;;;;6271548;28;24853;-81
2024/03/14 12:30:56;;;;;;;14.00;9.65;;;;;;;;;;6273489;28;24442;-81
2024/03/14 12:33:59;;;;;;;14.00;9.45;;;;;;;;;;6270176;28;25036;-80
2024/03/14 12:37:01;;;;;;;13.38;8.88;;;;;;;;;;6272912;28;24617;-81
2024/03/14 12:40:07;;;;;;;14.03;9.07;;;;;;;;;;6253203;28;24571;-78
2024/03/14 12:43:09;;;;;;;12.30;8.63;;;;;;;;;;6246947;28;25066;-81
2024/03/14 12:46:11;;;;;;;12.40;8.30;;;;;;;;;;6245612;28;25441;-80
2024/03/14 12:49:13;;;;;;;11.23;7.93;;;;;;;;;;6253450;28;24522;-80
2024/03/14 12:52:14;;;;;;;11.53;7.73;;;;;;;;;;6247935;28;24991;-80
2024/03/14 12:55:17;;;;;;;17.00;8.30;;;;;;;;;;6249630;28;24518;-80
2024/03/14 12:58:21;;;;;;;10.60;7.67;;;;;;;;;;6248222;28;24447;-80
2024/03/14 13:01:27;;;;;;;12.88;8.13;;;;;;;;;;6246506;28;25446;-80
2024/03/14 13:04:32;;;;;;;12.95;7.38;;;;;;;;;;6247419;28;24581;-80
2024/03/14 13:07:35;;;;;;;12.47;7.43;;;;;;;;;;6245526;28;24416;-80
2024/03/14 13:10:38;;;;;;;10.43;7.77;;;;;;;;;;6245789;28;24423;-79
2024/03/14 13:13:40;;;;;;;11.77;8.15;;;;;;;;;;6246671;28;24422;-81
2024/03/14 13:16:44;;;;;;;14.20;8.33;;;;;;;;;;6248002;28;24435;-79
2024/03/14 13:19:55;;;;;;;14.03;9.07;;;;;;;;;;6248034;28;25034;-80
2024/03/14 13:22:58;;;;;;;11.90;8.15;;;;;;;;;;6246863;28;24542;-80
2024/03/14 13:25:59;;;;;;;9.77;6.38;;;;;;;;;;6242085;28;24430;-80
2024/03/14 13:29:01;;;;;;;96.50;74.18;;;;;;;;;;6250504;28;24536;-80
2024/03/14 13:32:03;;;;;;;66.65;45.45;;;;;;;;;;6248608;28;24493;-81
2024/03/14 13:35:10;;;;;;;36.00;22.30;;;;;;;;;;6250260;28;24502;-81
2024/03/14 13:38:12;;;;;;;20.67;14.52;;;;;;;;;;6247676;28;24416;-81
2024/03/14 13:41:14;;;;;;;26.97;19.60;;;;;;;;;;6245006;28;24415;-81
2024/03/14 13:44:15;;;;;;;10.23;6.90;;;;;;;;;;6251568;28;25011;-81
2024/03/14 13:47:17;;;;;;;11.82;8.40;;;;;;;;;;6253057;28;24472;-81
2024/03/14 13:50:18;;;;;;;14.20;9.68;;;;;;;;;;6254164;28;24524;-81
2024/03/14 13:53:24;;;;;;;9.95;6.70;;;;;;;;;;6252487;28;24426;-82
2024/03/14 13:56:28;;;;;;;57.83;37.72;;;;;;;;;;6254870;28;24423;-80
2024/03/14 13:59:31;;;;;;;7.70;5.78;;;;;;;;;;6253799;28;25849;-80
2024/03/14 14:02:32;;;;;;;7.88;5.60;;;;;;;;;;6249785;28;24507;-78
2024/03/14 14:05:34;;;;;;;6.60;4.50;;;;;;;;;;6252211;28;24458;-81
2024/03/14 14:08:36;;;;;;;7.90;4.80;;;;;;;;;;6252003;28;24428;-81
2024/03/14 14:11:39;;;;;;;6.60;3.67;;;;;;;;;;6251680;28;24420;-78
2024/03/14 14:14:41;;;;;;;6.53;4.47;;;;;;;;;;6258179;28;24917;-81
2024/03/14 14:17:42;;;;;;;7.60;5.00;;;;;;;;;;6249739;28;25019;-80
2024/03/14 14:20:44;;;;;;;6.47;4.00;;;;;;;;;;6249083;28;24507;-80
2024/03/14 14:23:45;;;;;;;7.38;4.65;;;;;;;;;;6249697;28;24841;-81
2024/03/14 14:26:47;;;;;;;8.07;4.83;;;;;;;;;;6250519;28;25373;-82
2024/03/14 14:29:49;;;;;;;6.15;3.90;;;;;;;;;;6249516;28;24427;-80
2024/03/14 14:32:52;;;;;;;6.43;4.20;;;;;;;;;;6251374;28;24450;-80
2024/03/14 14:35:53;;;;;;;7.03;4.50;;;;;;;;;;6248460;28;24420;-81
2024/03/14 14:38:55;;;;;;;5.32;3.60;;;;;;;;;;6250852;28;24426;-79
2024/03/14 14:41:56;;;;;;;5.73;3.07;;;;;;;;;;6249050;28;25039;-80
2024/03/14 14:44:58;;;;;;;6.88;3.47;;;;;;;;;;6249076;28;24504;-79
2024/03/14 14:47:59;;;;;;;5.50;3.22;;;;;;;;;;6248430;28;24503;-79
2024/03/14 14:51:03;;;;;;;5.68;3.50;;;;;;;;;;6247283;28;24450;-80
2024/03/14 14:54:08;;;;;;;5.80;2.80;;;;;;;;;;6248284;28;25048;-81
2024/03/14 14:57:10;;;;;;;5.88;2.72;;;;;;;;;;6248056;28;24438;-80
2024/03/14 15:00:13;;;;;;;6.22;3.15;;;;;;;;;;6251464;28;24564;-81
2024/03/14 15:03:14;;;;;;;5.05;3.20;;;;;;;;;;6250496;28;25011;-80
2024/03/14 15:06:16;;;;;;;6.93;3.10;;;;;;;;;;6247898;28;24445;-79
2024/03/14 15:09:18;;;;;;;8.15;3.47;;;;;;;;;;6249140;28;25128;-81
2024/03/14 15:12:19;;;;;;;5.53;3.08;;;;;;;;;;6252225;28;24418;-80
2024/03/14 15:15:21;;;;;;;7.80;2.95;;;;;;;;;;6249954;28;24469;-79
2024/03/14 15:18:23;;;;;;;6.25;2.70;;;;;;;;;;6250222;28;25118;-81
2024/03/14 15:21:27;;;;;;;4.18;2.30;;;;;;;;;;6247241;28;24439;-82
2024/03/14 15:24:29;;;;;;;4.15;2.30;;;;;;;;;;6250135;28;24570;-79
2024/03/14 15:27:31;;;;;;;6.95;2.40;;;;;;;;;;6249639;28;24466;-79
2024/03/14 15:30:34;;;;;;;15.57;10.77;;;;;;;;;;6251115;28;24836;-81
2024/03/14 15:33:35;;;;;;;17.50;10.45;;;;;;;;;;6247752;28;24423;-83
2024/03/14 15:36:36;;;;;;;4.85;2.10;;;;;;;;;;6249882;28;24588;-80
2024/03/14 15:39:38;;;;;;;4.13;2.00;;;;;;;;;;6248043;28;25022;-80
2024/03/14 15:42:39;;;;;;;5.75;2.58;;;;;;;;;;6245963;28;24573;-81
2024/03/14 15:45:41;;;;;;;4.93;2.30;;;;;;;;;;6255036;28;24880;-78
2024/03/14 15:48:42;;;;;;;6.63;2.40;;;;;;;;;;6248178;28;24630;-81
2024/03/14 15:51:46;;;;;;;4.95;2.20;;;;;;;;;;6246391;28;24642;-81
2024/03/14 15:54:48;;;;;;;6.70;2.20;;;;;;;;;;6245767;28;25224;-81
2024/03/14 15:57:50;;;;;;;5.87;2.50;;;;;;;;;;6246853;28;24428;-80
2024/03/14 16:00:52;;;;;;;6.15;1.95;;;;;;;;;;6250051;28;24427;-80
2024/03/14 16:03:53;;;;;;;5.90;2.50;;;;;;;;;;6249150;28;25034;-80
2024/03/14 16:06:55;;;;;;;5.93;2.65;;;;;;;;;;6247957;28;25053;-82
2024/03/14 16:09:56;;;;;;;8.68;2.60;;;;;;;;;;6247413;28;24769;-81
2024/03/14 16:12:58;;;;;;;5.68;2.83;;;;;;;;;;6249134;28;25310;-80
2024/03/14 16:15:59;;;;;;;5.45;2.47;;;;;;;;;;6249690;28;24423;-81
2024/03/14 16:19:04;;;;;;;15.53;9.50;;;;;;;;;;6247286;28;24471;-80
2024/03/14 16:22:05;;;;;;;29.15;18.42;;;;;;;;;;6239068;28;24529;-79
2024/03/14 16:25:11;;;;;;;14.45;6.65;;;;;;;;;;6252956;28;24423;-81
2024/03/14 16:28:12;;;;;;;19.23;10.90;;;;;;;;;;6247853;28;25011;-80
2024/03/14 16:31:14;;;;;;;53.63;31.50;;;;;;;;;;6250696;28;24539;-81
2024/03/14 16:34:15;;;;;;;50.95;30.67;;;;;;;;;;6246769;28;25003;-80
2024/03/14 16:37:17;;;;;;;12.05;6.85;;;;;;;;;;6248514;28;24870;-81
2024/03/14 16:40:19;;;;;;;10.68;4.90;;;;;;;;;;6248286;28;24494;-80
2024/03/14 16:43:20;;;;;;;7.90;2.88;;;;;;;;;;6247320;28;24455;-80
2024/03/14 16:46:25;;;;;;;6.93;2.97;;;;;;;;;;6247098;28;24415;-80
2024/03/14 16:49:27;;;;;;;6.93;2.20;;;;;;;;;;6247330;28;24400;-81
2024/03/14 16:52:28;;;;;;;7.85;2.00;;;;;;;;;;6247834;28;24442;-80
2024/03/14 16:55:29;;;;;;;6.13;2.22;;;;;;;;;;6247043;28;24412;-80
2024/03/14 16:58:31;;;;;;;6.88;2.30;;;;;;;;;;6247349;28;24570;-79
2024/03/14 17:01:35;;;;;;;4.15;1.95;;;;;;;;;;6248275;28;24504;-82
2024/03/14 17:04:37;;;;;;;5.75;1.90;;;;;;;;;;6248580;28;24423;-79
2024/03/14 17:07:39;;;;;;;4.47;1.95;;;;;;;;;;6246877;28;24422;-79
2024/03/14 17:10:40;;;;;;;5.60;1.98;;;;;;;;;;6250334;28;24550;-79
2024/03/14 17:16:45;;;;;;;6.00;2.45;;;;;;;;;;6206725;28;25027;-82
2024/03/14 17:19:47;;;;;;;6.13;2.33;;;;;;;;;;6212589;28;24498;-81
2024/03/14 17:22:48;;;;;;;6.70;2.20;;;;;;;;;;6214346;28;24416;-80
2024/03/14 17:25:50;;;;;;;5.60;1.90;;;;;;;;;;6211021;28;24411;-80
2024/03/14 17:28:54;;;;;;;6.43;2.20;;;;;;;;;;6212327;28;24417;-79
2024/03/14 17:31:56;;;;;;;6.30;2.20;;;;;;;;;;6212409;28;24420;-80
2024/03/14 17:34:57;;;;;;;7.43;2.40;;;;;;;;;;6213192;28;24473;-79
2024/03/14 17:38:02;;;;;;;5.53;2.30;;;;;;;;;;6209617;28;24490;-82
2024/03/14 17:41:06;;;;;;;5.80;2.63;;;;;;;;;;6212507;28;24420;-81
2024/03/14 17:44:07;;;;;;;7.57;2.60;;;;;;;;;;6209299;28;26240;-83
2024/03/14 17:47:09;;;;;;;7.50;2.53;;;;;;;;;;6212386;28;24547;-80
2024/03/14 17:50:11;;;;;;;6.38;2.60;;;;;;;;;;6208073;28;24623;-81
2024/03/14 17:53:14;;;;;;;8.13;2.80;;;;;;;;;;6194808;28;25046;-82
2024/03/14 17:56:17;;;;;;;5.70;2.85;;;;;;;;;;6209546;28;24428;-79
2024/03/14 17:59:20;;;;;;;5.93;2.20;;;;;;;;;;6194552;28;24431;-79